Time;durP1;ratioP1;P1;durP2;ratioP2;P2;SDS_P1;SDS_P2;PMS_P1;PMS_P2;Temp;Humidity;BMP_temperature;BMP_pressure;BME280_temperature;BME280_humidity;BME280_pressure;Samples;Min_cycle;Max_cycle;Signal;HPM_P1;HPM_P2
2022/08/17 00:00:22;;;;;;;;;;;;;;;24.82;86.71;99926.38;5056598;28;19967;-85
2022/08/17 00:03:16;;;;;;;;;;;;;;;24.90;86.46;99918.38;5056050;28;19917;-86
2022/08/17 00:05:58;;;;;;;;;;;;;;;24.94;86.50;99919.81;5040272;28;20015;-85
2022/08/17 00:08:50;;;;;;;;;;;;;;;24.90;86.66;99924.06;5055446;28;19964;-85
2022/08/17 00:11:23;;;;;;;;;;;;;;;24.95;86.89;99927.09;5053748;28;20016;-85
2022/08/17 00:13:50;;;;;;;;;;;;;;;24.91;86.83;99920.75;5055803;28;19917;-85
2022/08/17 00:16:21;;;;;;;;;;;;;;;24.89;86.89;99923.28;5054868;28;19916;-85
2022/08/17 00:18:46;;;;;;;;;;;;;;;24.90;86.76;99919.16;5057480;28;19917;-85
2022/08/17 00:21:13;;;;;;;;;;;;;;;24.93;86.61;99918.25;5058907;28;19971;-85
2022/08/17 00:23:40;;;;;;;;;;;;;;;24.86;86.54;99918.50;5055101;28;19979;-85
2022/08/17 00:26:06;;;;;;;;;;;;;;;24.79;87.20;99913.13;5054990;28;19917;-86
2022/08/17 00:28:31;;;;;;;;;;;;;;;24.75;87.73;99923.84;5055325;28;20367;-85
2022/08/17 00:30:57;;;;;;;;;;;;;;;24.72;88.37;99924.78;5054265;28;19921;-86
2022/08/17 00:33:26;;;;;;;;;;;;;;;24.71;87.95;99923.19;5054290;28;19924;-85
2022/08/17 00:35:52;;;;;;;;;;;;;;;24.68;88.66;99932.66;5054463;28;20391;-85
2022/08/17 00:38:17;;;;;;;;;;;;;;;24.69;88.90;99931.41;5054501;28;19917;-85
2022/08/17 00:40:48;;;;;;;;;;;;;;;24.67;88.80;99937.56;5055726;28;20370;-85
2022/08/17 00:43:15;;;;;;;;;;;;;;;24.74;89.00;99940.13;5055411;28;19923;-85
2022/08/17 00:45:40;;;;;;;;;;;;;;;24.75;88.82;99940.91;5054068;28;19917;-85
2022/08/17 00:48:06;;;;;;;;;;;;;;;24.77;88.91;99938.41;5071313;28;19921;-85
2022/08/17 00:50:31;;;;;;;;;;;;;;;24.83;89.76;99931.63;5053638;28;19917;-85
2022/08/17 00:52:57;;;;;;;;;;;;;;;24.83;89.31;99925.94;5052569;28;19920;-85
2022/08/17 00:55:24;;;;;;;;;;;;;;;24.85;88.36;99925.47;5070491;28;19916;-86
2022/08/17 00:57:52;;;;;;;;;;;;;;;24.87;88.06;99930.69;5053962;28;19994;-85
2022/08/17 01:00:25;;;;;;;;;;;;;;;24.85;88.02;99947.44;5053907;28;20020;-85
2022/08/17 01:02:55;;;;;;;;;;;;;;;24.75;88.20;99946.59;5054133;28;20411;-85
2022/08/17 01:05:23;;;;;;;;;;;;;;;24.78;87.16;99946.47;5055019;28;19924;-86
2022/08/17 01:07:49;;;;;;;;;;;;;;;24.81;86.30;99950.41;5055532;28;19917;-86
2022/08/17 01:10:16;;;;;;;;;;;;;;;24.74;86.40;99957.19;5055167;28;19924;-85
2022/08/17 01:12:42;;;;;;;;;;;;;;;24.70;86.79;99961.44;5054178;28;19921;-85
2022/08/17 01:15:07;;;;;;;;;;;;;;;24.62;86.99;99960.13;5054457;28;20474;-85
2022/08/17 01:17:33;;;;;;;;;;;;;;;24.56;87.65;99963.56;5055134;28;20387;-85
2022/08/17 01:19:58;;;;;;;;;;;;;;;24.54;88.09;99949.00;5053514;28;19916;-85
2022/08/17 01:22:24;;;;;;;;;;;;;;;24.55;88.46;99955.47;5054767;28;19927;-86
2022/08/17 01:24:52;;;;;;;;;;;;;;;24.52;88.45;99956.44;5053996;28;20358;-85
2022/08/17 01:27:19;;;;;;;;;;;;;;;24.58;88.19;99960.25;5054051;28;19917;-85
2022/08/17 01:29:47;;;;;;;;;;;;;;;24.62;88.29;99949.53;5054824;28;20355;-85
2022/08/17 01:32:13;;;;;;;;;;;;;;;24.55;88.26;99953.47;5053811;28;19924;-85
2022/08/17 01:34:41;;;;;;;;;;;;;;;24.41;88.93;99944.66;5053816;28;19921;-85
2022/08/17 01:37:06;;;;;;;;;;;;;;;24.38;89.48;99948.44;5053125;28;19917;-85
2022/08/17 01:39:37;;;;;;;;;;;;;;;24.44;89.65;99949.41;5053688;28;19970;-85
2022/08/17 01:42:07;;;;;;;;;;;;;;;24.46;89.82;99953.38;5054462;28;19921;-85
2022/08/17 01:44:33;;;;;;;;;;;;;;;24.43;90.17;99953.50;5053074;28;19948;-85
2022/08/17 01:46:58;;;;;;;;;;;;;;;24.43;90.08;99945.78;5053130;28;19924;-85
2022/08/17 01:49:24;;;;;;;;;;;;;;;24.37;91.81;99939.09;5054326;28;19923;-85
2022/08/17 01:51:49;;;;;;;;;;;;;;;24.27;93.31;99952.44;5052996;28;20302;-85
2022/08/17 01:54:16;;;;;;;;;;;;;;;24.29;92.71;99952.78;5053505;28;20037;-85
2022/08/17 01:56:44;;;;;;;;;;;;;;;24.34;92.12;99957.03;5052852;28;19921;-85
2022/08/17 01:59:10;;;;;;;;;;;;;;;24.34;92.18;99951.38;5052508;28;20269;-85
2022/08/17 02:01:35;;;;;;;;;;;;;;;24.39;91.78;99947.94;5054162;28;19923;-85
2022/08/17 02:04:01;;;;;;;;;;;;;;;24.42;90.76;99944.19;5052717;28;20019;-85
2022/08/17 02:06:28;;;;;;;;;;;;;;;24.44;90.41;99938.03;5052832;28;19923;-85
2022/08/17 02:08:54;;;;;;;;;;;;;;;24.46;90.42;99947.72;5053430;28;19995;-85
2022/08/17 02:11:20;;;;;;;;;;;;;;;24.34;90.93;99934.31;5055746;28;19951;-85
2022/08/17 02:13:47;;;;;;;;;;;;;;;24.36;91.12;99934.69;5057829;28;20409;-85
2022/08/17 02:16:13;;;;;;;;;;;;;;;24.34;91.19;99928.63;5052701;28;19917;-85
2022/08/17 02:18:38;;;;;;;;;;;;;;;24.26;91.79;99944.38;5053100;28;19971;-85
2022/08/17 02:21:03;;;;;;;;;;;;;;;24.24;91.87;99941.22;5069789;28;20363;-85
2022/08/17 02:23:31;;;;;;;;;;;;;;;24.27;92.26;99926.84;5052220;28;19967;-85
2022/08/17 02:25:57;;;;;;;;;;;;;;;24.31;92.62;99936.03;5052853;28;20007;-85
2022/08/17 02:28:22;;;;;;;;;;;;;;;24.29;92.42;99944.25;5052662;28;19928;-85
2022/08/17 02:30:48;;;;;;;;;;;;;;;24.25;93.20;99943.59;5052349;28;19917;-85
2022/08/17 02:33:14;;;;;;;;;;;;;;;24.26;93.53;99941.53;5069469;28;19921;-84
2022/08/17 02:35:39;;;;;;;;;;;;;;;24.26;93.96;99941.53;5052732;28;20275;-85
2022/08/17 02:38:05;;;;;;;;;;;;;;;24.24;94.27;99941.22;5053462;28;19916;-85
2022/08/17 02:40:31;;;;;;;;;;;;;;;24.30;94.08;99939.34;5052406;28;20399;-85
2022/08/17 02:42:57;;;;;;;;;;;;;;;24.29;94.03;99932.88;5052857;28;19926;-85
2022/08/17 02:45:25;;;;;;;;;;;;;;;24.31;94.44;99935.25;5052682;28;19927;-85
2022/08/17 02:47:51;;;;;;;;;;;;;;;24.27;94.73;99917.53;5052522;28;19917;-85
2022/08/17 02:50:18;;;;;;;;;;;;;;;24.31;94.85;99929.56;5052452;28;19917;-84
2022/08/17 02:52:44;;;;;;;;;;;;;;;24.34;94.56;99920.09;5052546;28;20279;-85
2022/08/17 02:55:12;;;;;;;;;;;;;;;24.34;93.97;99917.25;5052608;28;19939;-85
2022/08/17 02:57:37;;;;;;;;;;;;;;;24.36;93.70;99911.94;5052680;28;19920;-85
2022/08/17 03:00:09;;;;;;;;;;;;;;;24.33;94.08;99912.03;5053219;28;20394;-84
2022/08/17 03:02:42;;;;;;;;;;;;;;;24.30;93.86;99905.25;5052789;28;19924;-84
2022/08/17 03:05:08;;;;;;;;;;;;;;;24.27;93.90;99906.16;5052777;28;20340;-85
2022/08/17 03:07:33;;;;;;;;;;;;;;;24.24;93.84;99907.88;5052245;28;19970;-85
2022/08/17 03:09:59;;;;;;;;;;;;;;;24.29;93.82;99903.66;5053696;28;20016;-85
2022/08/17 03:12:27;;;;;;;;;;;;;;;24.22;94.19;99906.75;5052437;28;19916;-85
2022/08/17 03:14:52;;;;;;;;;;;;;;;24.27;94.31;99903.31;5053713;28;19917;-85
2022/08/17 03:17:17;;;;;;;;;;;;;;;24.28;93.89;99910.56;5073082;28;20263;-85
2022/08/17 03:19:43;;;;;;;;;;;;;;;24.28;93.70;99904.88;5057280;28;19917;-85
2022/08/17 03:22:08;;;;;;;;;;;;;;;24.28;93.77;99905.69;5056717;28;20276;-85
2022/08/17 03:24:33;;;;;;;;;;;;;;;24.26;93.42;99904.56;5057254;28;19923;-85
2022/08/17 03:26:59;;;;;;;;;;;;;;;24.25;93.27;99905.84;5056888;28;19923;-85
2022/08/17 03:29:24;;;;;;;;;;;;;;;24.18;92.72;99897.56;5056869;28;20023;-85
2022/08/17 03:31:49;;;;;;;;;;;;;;;24.17;93.38;99904.50;5072128;28;19960;-85
2022/08/17 03:34:15;;;;;;;;;;;;;;;24.18;93.46;99894.72;5072199;28;19917;-85
2022/08/17 03:36:43;;;;;;;;;;;;;;;24.16;93.20;99897.25;5055557;28;20011;-84
2022/08/17 03:39:08;;;;;;;;;;;;;;;24.11;94.11;99892.16;5056004;28;20287;-84
2022/08/17 03:41:35;;;;;;;;;;;;;;;24.04;94.22;99896.84;5056344;28;19921;-85
2022/08/17 03:44:00;;;;;;;;;;;;;;;24.13;93.92;99901.81;5056933;28;20015;-85
2022/08/17 03:57:23;;;;;;;;;;;;;;;24.14;94.18;99909.06;5058368;28;19986;-84
2022/08/17 03:59:49;;;;;;;;;;;;;;;24.18;94.35;99909.75;5076685;28;19917;-84
2022/08/17 04:02:21;;;;;;;;;;;;;;;24.25;93.31;99918.00;5076721;28;20015;-84
2022/08/17 04:04:50;;;;;;;;;;;;;;;24.26;92.84;99910.25;5079333;28;19923;-84
2022/08/17 04:07:16;;;;;;;;;;;;;;;24.22;93.14;99910.38;5061741;28;19967;-84
2022/08/17 04:09:41;;;;;;;;;;;;;;;24.24;93.33;99907.09;5058122;28;19951;-85
2022/08/17 04:12:07;;;;;;;;;;;;;;;24.26;93.39;99918.78;5074806;28;19917;-85
2022/08/17 04:14:37;;;;;;;;;;;;;;;24.27;92.97;99912.63;5076320;28;19962;-84
2022/08/17 04:17:03;;;;;;;;;;;;;;;24.25;92.99;99920.84;5076526;28;20374;-85
2022/08/17 04:19:28;;;;;;;;;;;;;;;24.25;92.74;99920.06;5075613;28;19922;-84
2022/08/17 04:21:53;;;;;;;;;;;;;;;24.25;92.81;99922.88;5075823;28;20003;-85
2022/08/17 04:24:19;;;;;;;;;;;;;;;24.10;93.70;99924.66;5058436;28;19920;-85
2022/08/17 04:26:44;;;;;;;;;;;;;;;24.21;92.95;99927.91;5075479;28;20347;-84
2022/08/17 04:29:09;;;;;;;;;;;;;;;24.38;91.87;99935.00;5075154;28;20323;-84
2022/08/17 04:31:35;;;;;;;;;;;;;;;24.43;90.94;99925.88;5058067;28;20407;-85
2022/08/17 04:34:00;;;;;;;;;;;;;;;24.58;90.31;99919.66;5058057;28;19985;-85
2022/08/17 04:36:27;;;;;;;;;;;;;;;24.56;90.44;99918.06;5058129;28;20266;-85
2022/08/17 04:38:54;;;;;;;;;;;;;;;24.66;90.09;99920.94;5075182;28;19939;-85
2022/08/17 04:44:03;;;;;;;;;;;;;;;25.05;87.13;99923.03;5075459;28;19958;-85
2022/08/17 04:46:31;;;;;;;;;;;;;;;25.24;85.21;99918.19;5057387;28;19916;-86
2022/08/17 04:48:57;;;;;;;;;;;;;;;25.51;83.35;99926.00;5057393;28;19963;-85
2022/08/17 04:51:26;;;;;;;;;;;;;;;25.82;82.06;99933.69;5075244;28;19959;-86
2022/08/17 04:53:53;;;;;;;;;;;;;;;26.13;79.07;99928.63;5075174;28;20024;-85
2022/08/17 04:56:19;;;;;;;;;;;;;;;26.51;77.26;99923.69;5075116;28;19916;-85
2022/08/17 04:58:46;;;;;;;;;;;;;;;26.89;75.36;99925.94;5075194;28;19920;-86
2022/08/17 05:01:13;;;;;;;;;;;;;;;27.20;74.10;99939.16;5075641;28;20007;-86
2022/08/17 05:03:38;;;;;;;;;;;;;;;27.49;72.50;99945.03;5075282;28;19923;-86
2022/08/17 05:06:04;;;;;;;;;;;;;;;27.71;71.60;99955.41;5057311;28;19917;-86
2022/08/17 05:08:31;;;;;;;;;;;;;;;28.00;70.54;99971.84;5075521;28;19916;-86
2022/08/17 05:10:57;;;;;;;;;;;;;;;28.40;68.75;99969.31;5073575;28;19928;-86
2022/08/17 05:13:23;;;;;;;;;;;;;;;28.60;67.87;99980.06;5056856;28;19923;-86
2022/08/17 05:15:56;;;;;;;;;;;;;;;28.97;66.84;99986.22;5056893;28;19920;-86
2022/08/17 05:18:21;;;;;;;;;;;;;;;29.32;65.47;99973.25;5073773;28;20379;-86
2022/08/17 05:20:46;;;;;;;;;;;;;;;29.32;64.71;99970.38;5075112;28;19962;-86
2022/08/17 05:23:13;;;;;;;;;;;;;;;29.60;63.02;99980.19;5057427;28;19916;-86
2022/08/17 05:25:40;;;;;;;;;;;;;;;29.93;62.13;99984.78;5056638;28;20367;-86
2022/08/17 05:28:06;;;;;;;;;;;;;;;30.49;61.44;99997.75;5073388;28;20003;-87
2022/08/17 05:30:32;;;;;;;;;;;;;;;30.93;59.66;100004.47;5056433;28;19979;-87
2022/08/17 05:33:05;;;;;;;;;;;;;;;30.98;59.31;100000.88;5056967;28;19927;-86
2022/08/17 05:35:31;;;;;;;;;;;;;;;31.30;58.09;99996.72;5057069;28;20446;-87
2022/08/17 05:37:57;;;;;;;;;;;;;;;31.47;56.43;99999.69;5055755;28;19963;-87
2022/08/17 05:40:24;;;;;;;;;;;;;;;31.99;56.35;100001.59;5075077;28;19916;-87
2022/08/17 05:42:49;;;;;;;;;;;;;;;31.86;55.21;99996.31;5057099;28;19985;-86
2022/08/17 05:45:15;;;;;;;;;;;;;;;32.19;54.21;100004.31;5056618;28;20394;-87
2022/08/17 05:47:42;;;;;;;;;;;;;;;32.53;52.42;100001.53;5056628;28;19916;-88
2022/08/17 05:50:08;;;;;;;;;;;;;;;32.45;52.90;100003.38;5074215;28;19924;-86
2022/08/17 05:52:33;;;;;;;;;;;;;;;32.47;53.67;100004.41;5040112;28;20374;-87
2022/08/17 05:55:11;;;;;;;;;;;;;;;32.73;50.80;100009.97;5074605;28;19917;-87
2022/08/17 05:57:36;;;;;;;;;;;;;;;32.56;52.30;100017.78;5075160;28;19931;-86
2022/08/17 06:00:07;;;;;;;;;;;;;;;32.49;52.38;100018.28;5075280;28;20011;-87
2022/08/17 06:02:35;;;;;;;;;;;;;;;32.43;52.87;100008.84;5074598;28;19951;-87
2022/08/17 06:05:11;;;;;;;;;;;;;;;32.64;52.45;100018.06;5056791;28;19917;-87
2022/08/17 06:07:47;;;;;;;;;;;;;;;32.38;53.50;100009.63;5055658;28;19920;-88
2022/08/17 06:10:30;;;;;;;;;;;;;;;32.26;53.79;100006.66;5055820;28;19969;-86
2022/08/17 06:13:11;;;;;;;;;;;;;;;31.72;54.85;100000.91;5072586;28;19916;-86
2022/08/17 06:15:52;;;;;;;;;;;;;;;31.93;54.90;100006.53;5073852;28;20375;-86
2022/08/17 06:18:19;;;;;;;;;;;;;;;31.28;56.66;100002.19;5056163;28;20322;-86
2022/08/17 06:20:49;;;;;;;;;;;;;;;31.04;57.65;100008.22;5056080;28;19940;-87
2022/08/17 06:23:19;;;;;;;;;;;;;;;30.75;58.99;100003.53;5072172;28;19917;-88
2022/08/17 06:25:47;;;;;;;;;;;;;;;31.09;57.81;99998.09;5056303;28;19921;-86
2022/08/17 06:28:15;;;;;;;;;;;;;;;30.64;60.62;100003.41;5055720;28;19966;-87
2022/08/17 06:30:48;;;;;;;;;;;;;;;31.20;57.57;100003.91;5055766;28;19961;-87
2022/08/17 06:33:19;;;;;;;;;;;;;;;31.65;56.42;100004.28;5055554;28;19923;-87
2022/08/17 06:35:53;;;;;;;;;;;;;;;31.65;55.77;99997.75;5056260;28;19923;-86
2022/08/17 06:38:19;;;;;;;;;;;;;;;31.87;55.88;99997.88;5055504;28;19917;-86
2022/08/17 06:40:44;;;;;;;;;;;;;;;31.96;55.93;100005.50;5074608;28;19923;-87
2022/08/17 06:43:15;;;;;;;;;;;;;;;32.27;53.90;100002.47;5055610;28;19928;-87
2022/08/17 06:45:47;;;;;;;;;;;;;;;32.41;53.17;100003.63;5073731;28;19920;-87
2022/08/17 06:48:23;;;;;;;;;;;;;;;32.23;54.94;99996.22;5073678;28;19923;-86
2022/08/17 06:50:52;;;;;;;;;;;;;;;32.18;54.46;99991.22;5059208;28;20397;-86
2022/08/17 06:53:20;;;;;;;;;;;;;;;32.13;55.01;99988.31;5077725;28;19916;-87
2022/08/17 06:55:51;;;;;;;;;;;;;;;32.29;54.43;99981.84;5059997;28;20343;-86
2022/08/17 06:58:19;;;;;;;;;;;;;;;31.95;55.22;99986.66;5056083;28;20372;-87
2022/08/17 07:00:46;;;;;;;;;;;;;;;31.99;55.73;99985.13;5056262;28;20004;-86
2022/08/17 07:03:25;;;;;;;;;;;;;;;32.70;53.95;99996.59;5057031;28;19921;-86
2022/08/17 07:05:53;;;;;;;;;;;;;;;33.15;52.00;99993.78;5056088;28;20016;-88
2022/08/17 07:08:32;;;;;;;;;;;;;;;32.45;53.42;99986.09;5055968;28;19967;-87
2022/08/17 07:11:00;;;;;;;;;;;;;;;32.33;53.95;99977.41;5055761;28;19917;-86
2022/08/17 07:13:32;;;;;;;;;;;;;;;32.53;53.96;99972.75;5056025;28;19917;-86
2022/08/17 07:16:19;;;;;;;;;;;;;;;32.14;54.59;99970.53;5057017;28;19971;-86
2022/08/17 07:18:45;;;;;;;;;;;;;;;32.29;53.62;99971.09;5055751;28;19924;-86
2022/08/17 07:21:24;;;;;;;;;;;;;;;31.82;55.03;99952.63;5055718;28;19916;-87
2022/08/17 07:24:08;;;;;;;;;;;;;;;32.20;55.24;99951.19;5056728;28;19957;-86
2022/08/17 07:26:33;;;;;;;;;;;;;;;32.82;53.23;99949.22;5056912;28;19920;-86
2022/08/17 07:28:59;;;;;;;;;;;;;;;32.97;51.98;99951.06;5055911;28;20455;-87
2022/08/17 07:31:25;;;;;;;;;;;;;;;32.95;51.53;99951.59;5056923;28;19923;-86
2022/08/17 07:34:02;;;;;;;;;;;;;;;32.46;52.64;99951.03;5055778;28;20023;-86
2022/08/17 07:36:32;;;;;;;;;;;;;;;32.88;51.67;99948.44;5055781;28;20280;-86
2022/08/17 07:38:58;;;;;;;;;;;;;;;33.36;50.20;99945.28;5056730;28;20363;-85
2022/08/17 07:41:24;;;;;;;;;;;;;;;33.51;50.40;99948.69;5055893;28;19969;-87
2022/08/17 07:43:52;;;;;;;;;;;;;;;33.04;51.62;99953.44;5055291;28;20382;-86
2022/08/17 07:49:33;;;;;;;;;;;;;;;33.15;50.70;99947.66;5056832;28;19967;-86
2022/08/17 07:52:02;;;;;;;;;;;;;;;33.89;48.29;99951.97;5056324;28;20046;-87
2022/08/17 07:54:29;;;;;;;;;;;;;;;34.60;46.67;99957.13;5054690;28;19917;-87
2022/08/17 07:57:02;;;;;;;;;;;;;;;35.49;44.79;99967.19;5055227;28;19917;-86
2022/08/17 07:59:34;;;;;;;;;;;;;;;35.53;44.80;99966.84;5070934;28;19928;-86
2022/08/17 08:02:03;;;;;;;;;;;;;;;35.38;45.00;99959.38;5054800;28;20275;-86
2022/08/17 08:05:08;;;;;;;;;;;;;;;35.61;44.45;99967.81;5055064;28;19916;-86
2022/08/17 08:07:54;;;;;;;;;;;;;;;35.10;45.04;99964.63;5013921;28;19917;-86
2022/08/17 08:10:31;;;;;;;;;;;;;;;34.33;45.71;99955.97;5014015;28;20435;-86
2022/08/17 08:13:13;;;;;;;;;;;;;;;34.57;46.31;99966.84;5041676;28;19921;-86
2022/08/17 08:15:41;;;;;;;;;;;;;;;35.36;42.73;99953.31;5054853;28;19917;-86
2022/08/17 08:18:19;;;;;;;;;;;;;;;35.81;41.81;99964.44;5055835;28;19917;-87
2022/08/17 08:20:50;;;;;;;;;;;;;;;36.08;40.76;99955.97;5071671;28;19968;-86
2022/08/17 08:23:17;;;;;;;;;;;;;;;36.27;40.82;99965.44;5054346;28;19917;-86
2022/08/17 08:25:58;;;;;;;;;;;;;;;36.34;40.93;99966.94;5071001;28;20379;-84
2022/08/17 08:28:32;;;;;;;;;;;;;;;36.11;41.78;99969.34;5054809;28;20386;-85
2022/08/17 08:31:24;;;;;;;;;;;;;;;36.10;41.11;99973.56;5054624;28;19989;-84
2022/08/17 08:34:17;;;;;;;;;;;;;;;35.78;41.49;99971.31;5035786;28;19924;-85
2022/08/17 08:36:51;;;;;;;;;;;;;;;34.79;43.17;99975.38;5038832;28;20283;-85
2022/08/17 08:39:20;;;;;;;;;;;;;;;35.02;43.60;99975.22;5071395;28;20360;-87
2022/08/17 08:41:54;;;;;;;;;;;;;;;35.86;41.16;99983.84;5053740;28;20360;-85
2022/08/17 08:44:32;;;;;;;;;;;;;;;36.57;39.87;99987.69;5070434;28;20020;-84
2022/08/17 08:46:59;;;;;;;;;;;;;;;37.13;38.66;99989.75;5054988;28;19925;-85
2022/08/17 08:49:35;;;;;;;;;;;;;;;36.55;39.15;100002.75;5055150;28;19967;-84
2022/08/17 08:52:02;;;;;;;;;;;;;;;36.68;38.52;99999.13;5055140;28;19952;-85
2022/08/17 08:54:36;;;;;;;;;;;;;;;37.60;36.52;99998.63;5053813;28;19917;-85
2022/08/17 08:57:12;;;;;;;;;;;;;;;37.63;35.65;99988.84;5054702;28;19921;-84
2022/08/17 08:59:45;;;;;;;;;;;;;;;37.81;34.38;99981.34;5056879;28;19920;-84
2022/08/17 09:02:29;;;;;;;;;;;;;;;37.26;34.46;99978.16;5057171;28;19963;-85
2022/08/17 09:05:06;;;;;;;;;;;;;;;36.76;35.83;99968.19;5057411;28;19916;-85
2022/08/17 09:07:52;;;;;;;;;;;;;;;37.94;33.97;99978.47;5057471;28;19921;-85
2022/08/17 09:10:18;;;;;;;;;;;;;;;38.21;33.45;99985.03;5055767;28;20436;-84
2022/08/17 09:12:47;;;;;;;;;;;;;;;38.82;32.87;99984.22;5055560;28;20398;-84
2022/08/17 09:15:26;;;;;;;;;;;;;;;37.60;34.46;99984.13;5057035;28;19916;-85
2022/08/17 09:17:56;;;;;;;;;;;;;;;36.87;35.23;99982.50;5056755;28;20026;-85
2022/08/17 09:20:42;;;;;;;;;;;;;;;35.40;38.42;99982.75;5057150;28;19964;-84
2022/08/17 09:23:12;;;;;;;;;;;;;;;35.23;39.84;99984.22;5055642;28;19916;-85
2022/08/17 09:25:59;;;;;;;;;;;;;;;36.07;38.62;99977.56;5056773;28;19917;-84
2022/08/17 09:28:36;;;;;;;;;;;;;;;37.12;36.93;99982.34;5057192;28;19923;-85
2022/08/17 09:31:06;;;;;;;;;;;;;;;37.02;36.94;99981.19;5074737;28;19916;-84
2022/08/17 09:33:34;;;;;;;;;;;;;;;37.50;36.54;99985.91;5057249;28;19921;-84
2022/08/17 09:36:06;;;;;;;;;;;;;;;36.97;36.42;99983.66;5056560;28;19916;-84
2022/08/17 09:38:43;;;;;;;;;;;;;;;36.68;38.23;99991.19;5056362;28;20007;-84
2022/08/17 09:41:15;;;;;;;;;;;;;;;37.15;37.20;99989.97;5058359;28;20393;-83
2022/08/17 09:43:41;;;;;;;;;;;;;;;37.52;36.09;99994.06;5059224;28;20015;-85
2022/08/17 09:46:14;;;;;;;;;;;;;;;37.80;34.67;99991.41;5056018;28;20003;-84
2022/08/17 09:49:06;;;;;;;;;;;;;;;38.03;35.06;99990.97;5057030;28;19994;-84
2022/08/17 09:51:38;;;;;;;;;;;;;;;37.40;35.13;99991.38;5053476;28;20356;-84
2022/08/17 09:54:08;;;;;;;;;;;;;;;37.31;35.65;99991.00;5056212;28;20335;-84
2022/08/17 09:56:55;;;;;;;;;;;;;;;37.31;35.98;99991.00;5055912;28;19917;-84
2022/08/17 09:59:20;;;;;;;;;;;;;;;37.75;35.64;99995.19;5051970;28;20012;-83
2022/08/17 10:01:55;;;;;;;;;;;;;;;37.61;35.63;99996.53;5069143;28;19971;-84
2022/08/17 10:04:23;;;;;;;;;;;;;;;38.06;34.52;99993.53;5069043;28;19979;-84
2022/08/17 10:06:57;;;;;;;;;;;;;;;38.76;33.35;99993.06;5069896;28;19917;-83
2022/08/17 10:09:28;;;;;;;;;;;;;;;37.69;38.45;99988.72;5052315;28;19940;-85
2022/08/17 10:12:15;;;;;;;;;;;;;;;36.93;40.24;99979.53;5069700;28;19917;-85
2022/08/17 10:14:58;;;;;;;;;;;;;;;37.62;39.11;99998.88;5053163;28;20237;-85
2022/08/17 10:17:30;;;;;;;;;;;;;;;38.29;37.11;99993.84;5069106;28;20379;-84
2022/08/17 10:20:00;;;;;;;;;;;;;;;38.31;37.12;99988.28;5053450;28;19923;-84
2022/08/17 10:28:09;;;;;;;;;;;;;;;37.29;39.33;99988.66;5060635;28;20009;-85
2022/08/17 10:30:42;;;;;;;;;;;;;;;38.05;38.35;99986.16;5059143;28;19924;-84
2022/08/17 10:33:14;;;;;;;;;;;;;;;37.48;38.77;99995.16;5061089;28;19916;-84
2022/08/17 10:36:09;;;;;;;;;;;;;;;36.90;39.55;99995.88;5058991;28;19917;-85
2022/08/17 10:38:38;;;;;;;;;;;;;;;37.71;38.24;99991.84;5050032;28;20011;-84
2022/08/17 10:41:22;;;;;;;;;;;;;;;38.11;37.92;99988.94;5076223;28;19969;-85
2022/08/17 10:44:01;;;;;;;;;;;;;;;38.04;36.98;99989.66;5059462;28;20286;-84
2022/08/17 10:46:45;;;;;;;;;;;;;;;37.60;37.14;99997.88;5059509;28;19916;-84
2022/08/17 10:49:10;;;;;;;;;;;;;;;37.64;36.45;99990.38;5075563;28;19924;-84
2022/08/17 10:51:37;;;;;;;;;;;;;;;37.83;36.54;99983.75;5075588;28;19917;-84
2022/08/17 10:54:04;;;;;;;;;;;;;;;37.40;37.22;99988.47;5059493;28;20279;-84
2022/08/17 10:56:41;;;;;;;;;;;;;;;37.28;37.49;99983.41;5060563;28;19975;-83
2022/08/17 10:59:07;;;;;;;;;;;;;;;37.00;37.64;99975.19;5058318;28;19924;-84
2022/08/17 11:01:32;;;;;;;;;;;;;;;37.26;37.23;99978.16;5059113;28;20023;-84
2022/08/17 11:04:02;;;;;;;;;;;;;;;36.75;37.35;99975.28;5075400;28;20063;-84
2022/08/17 11:06:42;;;;;;;;;;;;;;;37.58;36.83;99986.03;5059308;28;19921;-83
2022/08/17 11:09:07;;;;;;;;;;;;;;;37.57;37.00;99978.69;5058505;28;20372;-84
2022/08/17 11:11:36;;;;;;;;;;;;;;;37.49;37.67;99972.75;5074993;28;19917;-84
2022/08/17 11:14:16;;;;;;;;;;;;;;;37.64;36.94;99969.28;5075405;28;19964;-84
2022/08/17 11:16:49;;;;;;;;;;;;;;;36.70;39.38;99973.25;5075379;28;20442;-84
2022/08/17 11:19:19;;;;;;;;;;;;;;;36.96;38.52;99970.47;5059133;28;20366;-84
2022/08/17 11:21:44;;;;;;;;;;;;;;;37.05;39.51;99974.31;5075376;28;19928;-84
2022/08/17 11:24:15;;;;;;;;;;;;;;;36.37;39.98;99968.72;5059772;28;19924;-84
2022/08/17 11:26:57;;;;;;;;;;;;;;;36.65;38.08;99971.25;5060431;28;19916;-83
2022/08/17 11:29:25;;;;;;;;;;;;;;;36.39;39.86;99958.16;5058359;28;19921;-84
2022/08/17 11:32:17;;;;;;;;;;;;;;;36.81;39.32;99960.69;5058872;28;20407;-84
2022/08/17 11:34:43;;;;;;;;;;;;;;;36.40;38.98;99959.72;5042815;28;20011;-83
2022/08/17 11:37:27;;;;;;;;;;;;;;;36.59;38.38;99968.41;5055824;28;19917;-84
2022/08/17 11:40:05;;;;;;;;;;;;;;;36.89;37.99;99967.47;5056568;28;19917;-85
2022/08/17 11:42:43;;;;;;;;;;;;;;;36.42;37.51;99971.56;5055852;28;20405;-85
2022/08/17 11:45:08;;;;;;;;;;;;;;;36.59;36.32;99961.84;5072466;28;19964;-86
2022/08/17 11:53:48;;;;;;;;;;;;;;;35.46;39.28;99967.47;5039417;28;19917;-87
2022/08/17 11:56:32;;;;;;;;;;;;;;;35.62;37.92;99963.59;5071546;28;19940;-86
2022/08/17 11:58:57;;;;;;;;;;;;;;;36.12;37.61;99965.16;5054677;28;19948;-86
2022/08/17 12:01:23;;;;;;;;;;;;;;;36.51;39.15;99955.91;5056217;28;20375;-87
2022/08/17 12:03:52;;;;;;;;;;;;;;;35.54;41.04;99948.97;5071556;28;19917;-87
2022/08/17 12:06:26;;;;;;;;;;;;;;;35.69;41.59;99951.44;5055456;28;20245;-83
2022/08/17 12:08:57;;;;;;;;;;;;;;;35.52;42.00;99957.41;5071466;28;19917;-87
2022/08/17 12:11:25;;;;;;;;;;;;;;;35.39;41.17;99949.34;5072102;28;19928;-84
2022/08/17 12:13:54;;;;;;;;;;;;;;;35.61;40.89;99944.69;5056581;28;19917;-84
2022/08/17 12:16:20;;;;;;;;;;;;;;;36.13;39.71;99944.31;5056521;28;19916;-84
2022/08/17 12:18:57;;;;;;;;;;;;;;;35.64;40.50;99938.59;5054699;28;19917;-84
2022/08/17 12:21:30;;;;;;;;;;;;;;;35.62;40.05;99943.34;5056481;28;19920;-87
2022/08/17 12:24:04;;;;;;;;;;;;;;;35.71;39.79;99931.41;5054576;28;19916;-88
2022/08/17 12:26:31;;;;;;;;;;;;;;;36.33;39.88;99937.19;5055830;28;20026;-86
2022/08/17 12:29:01;;;;;;;;;;;;;;;36.30;39.80;99928.81;5054364;28;19924;-85
2022/08/17 12:31:28;;;;;;;;;;;;;;;36.15;38.79;99935.84;5055019;28;20449;-87
2022/08/17 12:33:54;;;;;;;;;;;;;;;36.53;38.45;99932.19;5054674;28;20368;-87
2022/08/17 12:36:24;;;;;;;;;;;;;;;36.02;39.29;99935.00;5054526;28;19917;-86
2022/08/17 12:38:58;;;;;;;;;;;;;;;36.14;39.91;99927.72;5054192;28;19917;-85
2022/08/17 12:41:34;;;;;;;;;;;;;;;35.68;40.60;99927.47;5054769;28;19917;-87
2022/08/17 12:44:02;;;;;;;;;;;;;;;35.75;40.83;99920.31;5054655;28;20029;-86
2022/08/17 12:46:30;;;;;;;;;;;;;;;35.71;40.69;99921.94;5070732;28;19923;-84
2022/08/17 12:49:09;;;;;;;;;;;;;;;35.40;40.68;99919.09;5053850;28;19919;-86
2022/08/17 12:51:35;;;;;;;;;;;;;;;35.43;41.66;99926.72;5055190;28;19917;-87
2022/08/17 12:54:00;;;;;;;;;;;;;;;35.82;41.04;99919.69;5054504;28;19924;-84
2022/08/17 12:56:26;;;;;;;;;;;;;;;35.60;41.33;99912.06;5053876;28;19917;-85
2022/08/17 12:58:53;;;;;;;;;;;;;;;35.33;41.88;99913.16;5057067;28;19928;-87
2022/08/17 13:01:18;;;;;;;;;;;;;;;35.40;41.81;99906.75;5057518;28;19916;-83
2022/08/17 13:03:48;;;;;;;;;;;;;;;35.30;42.52;99902.66;5057043;28;20377;-86
2022/08/17 13:06:25;;;;;;;;;;;;;;;35.07;43.16;99908.69;5057014;28;19973;-86
2022/08/17 13:08:50;;;;;;;;;;;;;;;35.35;42.38;99898.94;5057324;28;19916;-85
2022/08/17 13:11:17;;;;;;;;;;;;;;;35.66;41.42;99900.44;5057559;28;20362;-84
2022/08/17 13:14:06;;;;;;;;;;;;;;;35.45;41.48;99903.03;5057192;28;19920;-85
2022/08/17 13:16:32;;;;;;;;;;;;;;;35.58;41.15;99896.56;5056491;28;20467;-85
2022/08/17 13:19:20;;;;;;;;;;;;;;;35.45;40.89;99902.25;5074650;28;19916;-84
2022/08/17 13:21:48;;;;;;;;;;;;;;;35.10;42.07;99896.03;5075086;28;19917;-87
2022/08/17 13:24:18;;;;;;;;;;;;;;;35.01;41.99;99895.59;5074439;28;19923;-86
2022/08/17 13:26:53;;;;;;;;;;;;;;;35.40;41.48;99890.19;5056722;28;19923;-87
2022/08/17 13:29:26;;;;;;;;;;;;;;;35.58;40.39;99887.91;5074601;28;19916;-85